Time;durP1;ratioP1;P1;durP2;ratioP2;P2;SDS_P1;SDS_P2;PMS_P1;PMS_P2;Temp;Humidity;BMP_temperature;BMP_pressure;BME280_temperature;BME280_humidity;BME280_pressure;Samples;Min_cycle;Max_cycle;Signal;HPM_P1;HPM_P2
2024/04/09 00:00:42;;;;;;;16.83;5.20;;;;;;;23.85;37.57;97601.66;9079193;21;20228;-83
2024/04/09 00:04:04;;;;;;;20.73;4.63;;;;;;;23.59;37.93;97595.25;9080148;21;20225;-83
2024/04/09 00:07:27;;;;;;;20.23;4.20;;;;;;;23.51;37.53;97572.06;9089806;21;20250;-85
2024/04/09 00:10:51;;;;;;;16.73;4.70;;;;;;;23.40;39.07;97598.25;9097830;21;20236;-84
2024/04/09 00:14:16;;;;;;;20.53;4.53;;;;;;;22.82;40.49;97602.19;9081441;21;20266;-84
2024/04/09 00:17:44;;;;;;;20.93;5.33;;;;;;;22.65;40.75;97586.41;9081491;21;20512;-83
2024/04/09 00:21:05;;;;;;;19.93;4.70;;;;;;;22.47;41.41;97579.16;9081665;21;20315;-83
2024/04/09 00:24:31;;;;;;;19.00;4.77;;;;;;;22.18;42.32;97586.13;9080204;21;20781;-84
2024/04/09 00:27:55;;;;;;;22.77;5.07;;;;;;;22.18;42.55;97600.66;9080394;21;20251;-84
2024/04/09 00:31:18;;;;;;;13.57;5.13;;;;;;;22.07;42.59;97601.19;9081484;21;20705;-83
2024/04/09 00:34:38;;;;;;;19.03;4.90;;;;;;;21.80;42.48;97606.69;9081038;21;20225;-84
2024/04/09 00:38:06;;;;;;;16.60;4.33;;;;;;;22.06;42.29;97597.63;9079680;21;20235;-84
2024/04/09 00:41:29;;;;;;;18.43;4.87;;;;;;;21.61;43.06;97595.00;9079983;21;20234;-84
2024/04/09 00:44:52;;;;;;;18.93;4.70;;;;;;;22.02;42.39;97601.31;9080706;21;20226;-84
2024/04/09 00:48:16;;;;;;;19.60;4.67;;;;;;;21.90;42.71;97585.34;9080748;21;20697;-84
2024/04/09 00:51:41;;;;;;;14.97;4.10;;;;;;;21.17;43.95;97605.69;9082770;21;20282;-84
2024/04/09 00:55:03;;;;;;;11.80;4.37;;;;;;;21.18;44.53;97610.09;9081216;21;20227;-84
2024/04/09 00:58:27;;;;;;;20.33;4.70;;;;;;;20.32;45.60;97623.50;9081451;21;20230;-84
2024/04/09 01:01:54;;;;;;;21.03;5.63;;;;;;;21.17;43.96;97624.09;9077571;21;20588;-84
2024/04/09 01:05:17;;;;;;;19.20;5.87;;;;;;;21.44;43.51;97625.78;9076421;21;20227;-84
2024/04/09 01:08:38;;;;;;;19.77;4.70;;;;;;;21.31;44.35;97601.06;9079212;21;20245;-84
2024/04/09 01:12:01;;;;;;;19.90;4.97;;;;;;;21.23;43.96;97618.19;9080418;21;20265;-84
2024/04/09 01:15:24;;;;;;;19.23;4.47;;;;;;;21.26;43.53;97617.59;9081145;21;20685;-84
2024/04/09 01:18:50;;;;;;;22.17;5.13;;;;;;;21.16;43.47;97620.53;9080285;21;20296;-84
2024/04/09 01:22:14;;;;;;;19.60;4.40;;;;;;;21.34;43.33;97631.44;9083555;21;20226;-84
2024/04/09 01:25:37;;;;;;;19.73;4.47;;;;;;;20.25;43.02;97594.88;9081822;21;20573;-84
2024/04/09 01:29:00;;;;;;;16.40;5.03;;;;;;;20.59;44.35;97620.91;9082543;21;20242;-83
2024/04/09 01:32:25;;;;;;;23.60;4.30;;;;;;;20.65;41.21;97605.22;9092257;21;20217;-83
2024/04/09 01:35:46;;;;;;;17.77;4.13;;;;;;;21.03;42.29;97610.34;9087996;21;20230;-84
2024/04/09 01:39:10;;;;;;;18.70;3.87;;;;;;;21.08;41.88;97611.06;9077290;21;20271;-83
2024/04/09 01:42:36;;;;;;;23.43;4.10;;;;;;;21.30;41.36;97613.94;9078484;21;20269;-84
2024/04/09 01:45:57;;;;;;;15.37;4.63;;;;;;;21.61;40.87;97600.47;9078114;21;20221;-84
2024/04/09 01:49:23;;;;;;;17.27;4.87;;;;;;;21.29;42.07;97598.63;9076962;21;20546;-84
2024/04/09 01:52:43;;;;;;;17.40;5.33;;;;;;;20.78;43.26;97594.31;9077913;21;20665;-83
2024/04/09 01:56:08;;;;;;;14.17;3.77;;;;;;;21.13;43.12;97601.94;9077622;21;20253;-84
2024/04/09 01:59:32;;;;;;;13.97;3.63;;;;;;;21.16;42.65;97598.59;9076248;21;20237;-84
2024/04/09 02:02:56;;;;;;;13.40;4.60;;;;;;;21.23;42.23;97601.75;9078917;21;20225;-84
2024/04/09 02:06:20;;;;;;;12.33;4.43;;;;;;;21.07;42.08;97594.94;9078211;21;20224;-83
2024/04/09 02:09:41;;;;;;;17.10;5.20;;;;;;;21.34;41.83;97611.41;9077757;21;20270;-83
2024/04/09 02:13:04;;;;;;;16.63;4.40;;;;;;;21.62;41.12;97613.06;9078783;21;20227;-83
2024/04/09 02:16:30;;;;;;;9.63;4.17;;;;;;;21.52;40.88;97622.31;9077572;21;20223;-83
2024/04/09 02:19:53;;;;;;;16.27;4.07;;;;;;;21.33;41.64;97647.38;9075989;21;20271;-84
2024/04/09 02:23:16;;;;;;;15.63;4.27;;;;;;;20.65;42.05;97638.91;9076376;21;20268;-84
2024/04/09 02:26:39;;;;;;;14.23;4.27;;;;;;;20.78;42.29;97644.41;9077584;21;20221;-84
2024/04/09 02:30:02;;;;;;;15.47;4.40;;;;;;;21.20;41.90;97633.31;9077988;21;20234;-84
2024/04/09 02:33:30;;;;;;;20.00;4.33;;;;;;;21.20;42.45;97635.25;9078239;21;20280;-84
2024/04/09 02:36:54;;;;;;;9.40;3.93;;;;;;;21.57;41.29;97644.16;9077621;21;20224;-83
2024/04/09 02:40:15;;;;;;;12.93;4.07;;;;;;;20.78;43.32;97643.63;9077925;21;20286;-83
2024/04/09 02:43:38;;;;;;;15.23;4.20;;;;;;;20.41;43.78;97627.19;9077143;21;20219;-83
2024/04/09 02:47:01;;;;;;;15.17;4.20;;;;;;;20.83;41.67;97605.97;9076726;21;20265;-84
2024/04/09 02:50:24;;;;;;;13.20;4.10;;;;;;;21.04;40.67;97638.56;9077317;21;20694;-83
2024/04/09 02:53:47;;;;;;;9.70;4.10;;;;;;;20.51;41.45;97626.25;9078854;21;20279;-84
2024/04/09 02:57:12;;;;;;;14.80;3.53;;;;;;;20.84;40.59;97626.78;9077811;21;20227;-84
2024/04/09 03:00:33;;;;;;;14.77;3.37;;;;;;;20.54;40.00;97607.31;9080836;21;20595;-83
2024/04/09 03:03:56;;;;;;;11.80;3.37;;;;;;;20.50;40.23;97619.13;9080080;21;20719;-83
2024/04/09 03:07:19;;;;;;;10.67;4.03;;;;;;;20.50;40.19;97633.66;9079904;21;20218;-83
2024/04/09 03:10:42;;;;;;;10.47;2.77;;;;;;;21.13;37.76;97632.09;9081752;21;20236;-83
2024/04/09 03:14:10;;;;;;;11.87;4.07;;;;;;;21.40;37.40;97635.72;9081007;21;20268;-84
2024/04/09 03:17:33;;;;;;;11.30;4.23;;;;;;;21.18;38.05;97621.06;9077759;21;20264;-84
2024/04/09 03:21:00;;;;;;;8.43;3.30;;;;;;;20.82;39.54;97632.88;9076253;21;20590;-84
2024/04/09 03:24:23;;;;;;;16.13;3.80;;;;;;;21.06;38.88;97636.34;9076090;21;20240;-83
2024/04/09 03:27:46;;;;;;;13.13;3.83;;;;;;;21.16;37.54;97645.19;9077107;21;20282;-84
2024/04/09 03:31:07;;;;;;;10.33;3.70;;;;;;;21.28;37.59;97657.31;9079576;21;20239;-84
2024/04/09 03:34:33;;;;;;;12.57;3.80;;;;;;;20.71;38.44;97684.28;9079926;21;20728;-84
2024/04/09 03:37:57;;;;;;;11.73;3.50;;;;;;;20.71;39.19;97684.28;9077938;21;20271;-84
2024/04/09 03:41:22;;;;;;;11.47;3.33;;;;;;;21.06;38.33;97686.50;9079196;21;20233;-83
2024/04/09 03:44:46;;;;;;;9.83;3.73;;;;;;;20.91;38.84;97692.22;9083959;21;20271;-84
2024/04/09 03:48:06;;;;;;;12.03;3.70;;;;;;;20.95;38.47;97686.94;9082409;21;20242;-84
2024/04/09 03:51:30;;;;;;;9.43;3.70;;;;;;;20.99;37.57;97698.94;9079802;21;20359;-84
2024/04/09 03:54:53;;;;;;;10.20;4.37;;;;;;;21.08;38.58;97708.09;9080889;21;20261;-84
2024/04/09 03:58:16;;;;;;;7.50;3.10;;;;;;;20.29;40.30;97699.94;9079103;21;20267;-84
2024/04/09 04:01:40;;;;;;;11.00;3.50;;;;;;;19.84;41.06;97700.44;9079965;21;20371;-84
2024/04/09 04:05:03;;;;;;;10.17;3.53;;;;;;;20.16;40.41;97717.06;9079435;21;20332;-83
2024/04/09 04:08:26;;;;;;;9.20;3.87;;;;;;;20.05;40.83;97723.75;9078528;21;20226;-83
2024/04/09 04:11:50;;;;;;;11.67;3.80;;;;;;;19.82;41.51;97727.28;9079028;21;20229;-83
2024/04/09 04:15:13;;;;;;;10.23;3.33;;;;;;;19.90;41.32;97727.47;9079645;21;20225;-83
2024/04/09 04:18:37;;;;;;;7.90;3.73;;;;;;;20.40;40.37;97746.03;9077140;21;20692;-83
2024/04/09 04:22:00;;;;;;;8.07;3.53;;;;;;;20.31;40.40;97741.50;9077188;21;20412;-83
2024/04/09 04:25:23;;;;;;;12.10;3.77;;;;;;;20.38;40.24;97751.00;9078553;21;20761;-84
2024/04/09 04:28:45;;;;;;;8.00;3.33;;;;;;;20.38;40.23;97769.34;9079417;21;20747;-83
2024/04/09 04:32:10;;;;;;;12.77;3.93;;;;;;;20.09;40.66;97761.19;9079878;21;20326;-83
2024/04/09 04:35:31;;;;;;;11.00;3.90;;;;;;;19.91;41.39;97761.09;9080649;21;20546;-83
2024/04/09 04:38:54;;;;;;;7.70;2.90;;;;;;;19.78;42.08;97787.22;9078505;21;20276;-83
2024/04/09 04:42:15;;;;;;;10.80;3.43;;;;;;;20.03;41.12;97795.19;9080867;21;20549;-83
2024/04/09 04:45:38;;;;;;;18.53;3.93;;;;;;;19.66;41.65;97802.38;9080286;21;20728;-82
2024/04/09 04:49:04;;;;;;;12.97;3.77;;;;;;;19.45;42.89;97801.72;9079342;21;20239;-84
2024/04/09 04:52:25;;;;;;;8.40;3.87;;;;;;;19.63;42.77;97827.56;9074848;21;20228;-85
2024/04/09 04:55:49;;;;;;;8.33;3.40;;;;;;;19.86;42.54;97826.81;9078097;21;20336;-85
2024/04/09 04:59:09;;;;;;;10.77;3.57;;;;;;;19.89;42.01;97845.38;9074896;21;20698;-85
2024/04/09 05:02:33;;;;;;;10.57;3.50;;;;;;;19.68;43.62;97846.66;9077338;21;20254;-84
2024/04/09 05:06:07;;;;;;;11.93;3.83;;;;;;;19.67;43.15;97865.00;9077278;21;20323;-84
2024/04/09 05:09:31;;;;;;;9.57;3.83;;;;;;;19.39;43.51;97873.16;9075657;21;20312;-84
2024/04/09 05:12:52;;;;;;;18.83;4.03;;;;;;;19.36;44.45;97879.16;9076974;21;20229;-84
2024/04/09 05:16:16;;;;;;;16.83;4.13;;;;;;;19.51;44.06;97879.09;9077768;21;20741;-84
2024/04/09 05:19:39;;;;;;;18.07;4.57;;;;;;;19.66;43.08;97876.22;9077716;21;20230;-84
2024/04/09 05:23:05;;;;;;;13.07;4.13;;;;;;;20.16;42.48;97873.88;9075971;21;20223;-84
2024/04/09 05:26:28;;;;;;;19.47;4.10;;;;;;;20.48;42.25;97897.94;9078159;21;20225;-85
2024/04/09 05:29:49;;;;;;;7.80;4.40;;;;;;;20.78;40.96;97914.84;9096981;21;20251;-84
2024/04/09 05:33:12;;;;;;;10.23;3.70;;;;;;;20.55;42.71;97929.34;9081877;21;20273;-85
2024/04/09 05:36:35;;;;;;;18.63;4.37;;;;;;;20.77;42.08;97943.34;9078393;21;20555;-84
2024/04/09 05:39:58;;;;;;;24.87;4.33;;;;;;;20.48;43.17;97936.25;9077226;21;20224;-84
2024/04/09 05:43:23;;;;;;;18.33;4.80;;;;;;;21.04;42.27;97951.03;9077183;21;20221;-84
2024/04/09 05:46:46;;;;;;;11.97;3.80;;;;;;;21.06;41.73;97954.28;9076216;21;20720;-85
2024/04/09 05:50:09;;;;;;;11.23;3.23;;;;;;;21.56;40.58;97957.19;9077340;21;20276;-85
2024/04/09 05:53:32;;;;;;;11.53;3.10;;;;;;;21.69;40.61;97954.53;9078215;21;20310;-84
2024/04/09 05:56:56;;;;;;;11.43;3.10;;;;;;;21.91;40.20;97942.97;9076097;21;20223;-85
2024/04/09 06:00:21;;;;;;;10.63;2.93;;;;;;;21.69;40.58;97961.94;9077691;21;20725;-85
2024/04/09 06:03:42;;;;;;;13.17;3.03;;;;;;;22.08;39.99;97963.25;9078611;21;20234;-85
2024/04/09 06:07:06;;;;;;;9.10;2.57;;;;;;;22.56;39.74;97972.09;9076547;21;20592;-85
2024/04/09 06:10:29;;;;;;;14.40;3.13;;;;;;;22.41;39.73;97973.16;9078304;21;20241;-84
2024/04/09 06:13:57;;;;;;;7.37;2.53;;;;;;;22.71;39.04;97980.88;9077635;21;20226;-86
2024/04/09 06:17:17;;;;;;;9.40;3.00;;;;;;;22.49;40.07;97977.97;9073873;21;20349;-86
2024/04/09 06:20:40;;;;;;;11.27;2.80;;;;;;;22.77;39.07;97987.91;9074618;21;20244;-86
2024/04/09 06:24:01;;;;;;;10.70;2.80;;;;;;;22.71;39.21;98007.56;9072964;21;20236;-87
2024/04/09 06:27:24;;;;;;;8.47;2.67;;;;;;;22.27;39.83;97947.59;9073718;21;20261;-86
2024/04/09 06:30:50;;;;;;;14.00;2.70;;;;;;;22.38;40.50;97992.16;9073889;21;20539;-86
2024/04/09 06:34:11;;;;;;;9.10;2.57;;;;;;;22.65;39.98;97986.78;9071941;21;20273;-86
2024/04/09 06:37:34;;;;;;;6.13;2.30;;;;;;;22.73;40.28;98016.31;9072383;21;20222;-86
2024/04/09 06:40:55;;;;;;;8.97;3.07;;;;;;;22.75;40.04;98008.56;9073816;21;20240;-86
2024/04/09 06:44:18;;;;;;;5.83;2.37;;;;;;;22.88;40.25;98019.59;9074966;21;20587;-87
2024/04/09 06:47:44;;;;;;;5.97;2.90;;;;;;;22.84;40.38;98037.00;9074270;21;21049;-87
2024/04/09 06:51:05;;;;;;;6.00;2.30;;;;;;;22.89;40.76;98017.69;9073746;21;20243;-86
2024/04/09 06:54:28;;;;;;;5.43;2.03;;;;;;;22.73;41.15;98032.81;9075207;21;20234;-86
2024/04/09 06:57:51;;;;;;;8.57;2.30;;;;;;;22.70;41.18;98006.75;9087109;21;20275;-90
2024/04/09 07:01:11;;;;;;;6.50;2.00;;;;;;;22.79;41.26;98039.84;9089102;21;20290;-89
2024/04/09 07:04:37;;;;;;;6.17;2.80;;;;;;;23.03;41.15;98038.56;9077447;21;20540;-88
2024/04/09 07:08:02;;;;;;;9.50;2.30;;;;;;;22.70;41.67;98028.72;9077168;21;20221;-88
2024/04/09 07:11:25;;;;;;;6.90;2.63;;;;;;;22.62;42.02;98029.44;9077416;21;20342;-89
2024/04/09 07:14:46;;;;;;;5.43;2.57;;;;;;;23.15;41.52;98052.66;9076912;21;20268;-88
2024/04/09 07:29:28;;;;;;;10.00;2.47;;;;;;;23.34;41.98;98058.06;9146970;21;20228;-81
2024/04/09 07:37:43;;;;;;;6.40;2.67;;;;;;;22.86;42.61;98087.00;9165452;21;20224;-82
2024/04/09 07:41:08;;;;;;;4.80;2.20;;;;;;;23.21;42.37;98095.47;9158980;21;20676;-85
2024/04/09 07:49:04;;;;;;;6.87;2.40;;;;;;;22.89;43.27;98092.69;9024804;21;20538;-85
2024/04/09 07:52:27;;;;;;;7.70;2.33;;;;;;;22.78;43.59;98137.16;9166512;21;20222;-85
2024/04/09 07:55:48;;;;;;;7.30;2.20;;;;;;;22.54;44.48;98144.69;9162042;21;20213;-83
2024/04/09 07:59:12;;;;;;;9.93;2.47;;;;;;;22.16;44.84;98130.09;9160711;21;20266;-88
2024/04/09 08:02:33;;;;;;;6.27;1.83;;;;;;;21.76;45.67;98163.53;9161883;21;20330;-86
2024/04/09 08:05:59;;;;;;;9.53;2.40;;;;;;;21.42;46.61;98176.50;9159391;21;20226;-85
2024/04/09 08:09:19;;;;;;;9.90;2.53;;;;;;;20.09;49.83;98199.09;9154807;21;20691;-84
2024/04/09 08:12:46;;;;;;;6.77;1.50;;;;;;;20.21;47.80;98221.47;9154372;21;20261;-84
2024/04/09 08:16:10;;;;;;;6.10;1.53;;;;;;;19.08;49.97;98259.66;9159435;21;20224;-83
2024/04/09 08:19:31;;;;;;;4.13;1.80;;;;;;;19.06;48.73;98262.69;9164586;21;20278;-85
2024/04/09 08:22:57;;;;;;;3.13;1.10;;;;;;;19.11;48.56;98270.06;9165383;21;20227;-83
2024/04/09 08:26:17;;;;;;;3.37;1.00;;;;;;;19.42;47.46;98283.50;9165724;21;20235;-89
2024/04/09 08:29:40;;;;;;;2.47;1.10;;;;;;;19.33;47.67;98306.19;9163864;21;20273;-85
2024/04/09 08:33:01;;;;;;;1.43;1.13;;;;;;;18.83;48.88;98334.22;9165699;21;20219;-85
2024/04/09 08:36:27;;;;;;;2.80;0.80;;;;;;;17.77;49.07;98331.19;9165374;21;20225;-85
2024/04/09 08:39:57;;;;;;;1.37;0.90;;;;;;;17.57;49.19;98359.13;9164177;21;20234;-80
2024/04/09 08:43:18;;;;;;;6.00;1.10;;;;;;;17.71;47.78;98354.88;9164883;21;20219;-83
2024/04/09 08:46:42;;;;;;;1.63;0.70;;;;;;;17.96;47.05;98365.97;9158495;21;20252;-80
2024/04/09 08:50:03;;;;;;;1.10;1.00;;;;;;;18.12;46.46;98391.44;9161635;21;20304;-81
2024/04/09 08:53:30;;;;;;;1.00;0.70;;;;;;;17.73;46.40;98407.25;9160796;21;20269;-81
2024/04/09 08:56:57;;;;;;;5.37;1.20;;;;;;;16.75;46.64;98416.81;9156518;21;20718;-80
2024/04/09 09:00:20;;;;;;;5.37;1.00;;;;;;;16.53;46.88;98451.38;9157761;21;20964;-80
2024/04/09 09:03:44;;;;;;;3.37;0.90;;;;;;;16.77;46.69;98453.59;9157644;21;20225;-81
2024/04/09 09:07:08;;;;;;;3.20;1.10;;;;;;;16.83;46.15;98468.09;9157071;21;20271;-81
2024/04/09 09:10:31;;;;;;;7.33;1.17;;;;;;;16.23;47.97;98478.09;9159412;21;20238;-80
2024/04/09 09:14:07;;;;;;;4.60;0.80;;;;;;;16.49;47.83;98480.97;9158790;21;20224;-81
2024/04/09 09:17:29;;;;;;;4.87;1.13;;;;;;;16.64;46.55;98473.00;9156334;21;20260;-80
2024/04/09 09:21:00;;;;;;;4.73;1.20;;;;;;;16.79;45.50;98469.66;9150430;21;20283;-78
2024/04/09 09:24:21;;;;;;;1.97;0.80;;;;;;;16.63;44.21;98484.19;9147091;21;20271;-80
2024/04/09 09:27:44;;;;;;;2.43;0.83;;;;;;;16.58;44.25;98490.34;9150937;21;20224;-79
2024/04/09 09:31:13;;;;;;;4.57;1.30;;;;;;;16.15;45.88;98497.56;9150808;21;20236;-83
2024/04/09 09:34:37;;;;;;;3.10;1.00;;;;;;;16.34;46.08;98504.41;9150071;21;20741;-79
2024/04/09 09:38:00;;;;;;;1.07;0.83;;;;;;;15.98;46.58;98513.06;9159758;21;20228;-82
2024/04/09 09:41:24;;;;;;;1.00;1.00;;;;;;;16.35;46.56;98533.25;9152623;21;20234;-80
2024/04/09 09:44:48;;;;;;;1.70;1.00;;;;;;;16.76;44.93;98536.34;9151937;21;20546;-82
2024/04/09 09:48:12;;;;;;;2.53;1.17;;;;;;;16.58;44.95;98574.72;9150123;21;20585;-80
2024/04/09 09:51:35;;;;;;;4.60;1.67;;;;;;;15.96;45.99;98594.88;9150420;21;20330;-81
2024/04/09 09:54:55;;;;;;;3.90;1.13;;;;;;;15.43;45.84;98599.81;9152144;21;20217;-80
2024/04/09 09:58:21;;;;;;;1.17;1.00;;;;;;;15.62;45.64;98619.50;9150054;21;20262;-80
2024/04/09 10:01:48;;;;;;;6.30;1.10;;;;;;;15.68;45.69;98623.97;9150018;21;20518;-79
2024/04/09 10:05:14;;;;;;;1.57;1.10;;;;;;;15.72;45.62;98636.81;9150866;21;20221;-79
2024/04/09 10:08:43;;;;;;;1.47;1.17;;;;;;;16.11;44.71;98632.41;9150551;21;20657;-79
2024/04/09 10:12:04;;;;;;;1.13;1.13;;;;;;;15.97;45.53;98655.50;9149682;21;20223;-80
2024/04/09 10:15:30;;;;;;;2.93;1.00;;;;;;;15.99;45.68;98648.75;9149876;21;20229;-82
2024/04/09 10:18:51;;;;;;;3.87;1.10;;;;;;;16.09;45.40;98645.41;9149064;21;20228;-80
2024/04/09 10:22:20;;;;;;;2.47;1.10;;;;;;;15.79;46.34;98650.25;9151276;21;20240;-83
2024/04/09 10:25:44;;;;;;;1.90;1.03;;;;;;;15.64;46.28;98672.53;9149991;21;20216;-82
2024/04/09 10:29:08;;;;;;;1.53;1.10;;;;;;;15.99;45.73;98656.91;9150755;21;20234;-81
2024/04/09 10:32:29;;;;;;;1.17;1.03;;;;;;;16.00;45.81;98655.88;9151831;21;20216;-80
2024/04/09 10:35:52;;;;;;;1.03;0.93;;;;;;;16.29;45.26;98676.53;9150878;21;20287;-79
2024/04/09 10:39:20;;;;;;;4.77;1.30;;;;;;;15.71;46.37;98664.25;9152023;21;20675;-80
2024/04/09 10:42:43;;;;;;;3.03;1.20;;;;;;;15.97;45.71;98663.66;9152923;21;20532;-80
2024/04/09 10:46:05;;;;;;;1.13;0.83;;;;;;;15.99;45.25;98672.44;9152300;21;20259;-81
2024/04/09 10:49:28;;;;;;;1.00;1.00;;;;;;;15.82;46.15;98694.09;9155667;21;20259;-79
2024/04/09 10:52:49;;;;;;;1.67;1.00;;;;;;;15.88;46.00;98682.28;9151513;21;20216;-79
2024/04/09 10:56:16;;;;;;;2.27;1.00;;;;;;;16.22;44.98;98678.56;9151489;21;20224;-79
2024/04/09 10:59:39;;;;;;;2.10;1.20;;;;;;;16.41;45.02;98687.41;9148724;21;20240;-79
2024/04/09 11:03:07;;;;;;;2.40;1.27;;;;;;;16.49;44.92;98701.44;9149537;21;20644;-81
2024/04/09 11:06:31;;;;;;;1.73;1.00;;;;;;;15.39;47.46;98698.34;9150730;21;20229;-79
2024/04/09 11:09:52;;;;;;;1.37;1.27;;;;;;;15.24;48.32;98716.97;9154434;21;20236;-79
2024/04/09 11:13:18;;;;;;;1.03;1.00;;;;;;;15.50;47.56;98719.22;9155284;21;20216;-80
2024/04/09 11:16:45;;;;;;;1.30;1.20;;;;;;;15.46;47.02;98728.94;9150506;21;20224;-80
2024/04/09 11:20:10;;;;;;;2.70;1.10;;;;;;;15.67;46.28;98740.00;9150573;21;20239;-80
2024/04/09 11:23:33;;;;;;;2.63;1.17;;;;;;;15.52;45.98;98752.44;9154043;21;20263;-80
2024/04/09 11:26:54;;;;;;;2.83;1.30;;;;;;;15.67;45.79;98769.06;9153043;21;20248;-81
2024/04/09 11:30:27;;;;;;;2.33;1.40;;;;;;;15.47;46.23;98768.63;9156408;21;20346;-80
2024/04/09 11:33:51;;;;;;;1.20;1.10;;;;;;;15.59;45.83;98761.28;9157603;21;20274;-81
2024/04/09 11:37:11;;;;;;;2.97;1.53;;;;;;;15.70;44.42;98758.53;9151228;21;20265;-80
2024/04/09 11:40:36;;;;;;;2.30;1.20;;;;;;;15.38;45.44;98759.16;9154231;21;20240;-82
2024/04/09 11:43:58;;;;;;;1.50;1.33;;;;;;;15.90;45.37;98786.19;9157157;21;20225;-81
2024/04/09 11:47:24;;;;;;;1.30;1.20;;;;;;;16.38;43.67;98796.69;9155778;21;20725;-82
2024/04/09 11:50:47;;;;;;;1.47;1.10;;;;;;;16.35;44.04;98813.50;9157998;21;20263;-81
2024/04/09 11:54:11;;;;;;;3.27;1.20;;;;;;;15.82;44.55;98816.44;9155422;21;20221;-81
2024/04/09 11:57:34;;;;;;;1.07;1.00;;;;;;;15.26;45.25;98805.31;9153607;21;20220;-83
2024/04/09 12:01:01;;;;;;;0.87;0.87;;;;;;;15.70;44.42;98802.03;9155581;21;20234;-80
2024/04/09 12:04:26;;;;;;;2.87;1.10;;;;;;;15.88;43.99;98807.38;9155561;21;20220;-82
2024/04/09 12:07:47;;;;;;;2.63;1.20;;;;;;;16.31;43.29;98798.72;9154853;21;20672;-81
2024/04/09 12:11:10;;;;;;;1.37;1.20;;;;;;;16.21;43.25;98795.81;9152979;21;20290;-82
2024/04/09 12:14:31;;;;;;;3.20;1.10;;;;;;;16.07;43.18;98808.00;9155455;21;20255;-80
2024/04/09 12:17:55;;;;;;;1.37;0.97;;;;;;;16.20;43.36;98784.09;9152869;21;20240;-81
2024/04/09 12:21:18;;;;;;;3.90;1.10;;;;;;;16.38;42.42;98791.25;9155842;21;20225;-80
2024/04/09 12:24:41;;;;;;;2.33;1.13;;;;;;;16.48;42.42;98830.41;9156883;21;20329;-83
2024/04/09 12:28:04;;;;;;;1.20;1.10;;;;;;;15.51;44.21;98816.00;9157569;21;20228;-82
2024/04/09 12:31:25;;;;;;;1.20;1.10;;;;;;;15.64;44.28;98797.53;9159931;21;20279;-81
2024/04/09 12:34:49;;;;;;;2.53;1.40;;;;;;;15.92;44.38;98841.16;9157077;21;20232;-85
2024/04/09 12:38:12;;;;;;;1.10;1.00;;;;;;;16.06;44.44;98839.84;9153615;21;20263;-83
2024/04/09 12:41:35;;;;;;;1.10;1.10;;;;;;;15.87;43.44;98832.88;9153193;21;20688;-83
2024/04/09 12:44:59;;;;;;;3.77;1.20;;;;;;;15.94;44.77;98832.75;9153426;21;20212;-82
2024/04/09 12:48:20;;;;;;;1.00;1.00;;;;;;;15.97;44.34;98830.38;9155584;21;20228;-83
2024/04/09 12:51:44;;;;;;;1.33;1.20;;;;;;;15.49;44.26;98812.69;9160260;21;20228;-83
2024/04/09 12:55:10;;;;;;;1.23;1.13;;;;;;;15.40;44.89;98817.63;9161738;21;20217;-85
2024/04/09 12:58:33;;;;;;;1.00;1.00;;;;;;;16.05;44.38;98823.75;9161471;21;20216;-82
2024/04/09 13:01:56;;;;;;;2.43;1.10;;;;;;;15.97;43.38;98824.09;9162329;21;20762;-81
2024/04/09 13:05:17;;;;;;;0.97;0.97;;;;;;;15.94;42.72;98824.59;9161590;21;20224;-82
2024/04/09 13:08:40;;;;;;;1.00;1.00;;;;;;;16.25;42.17;98825.00;9160482;21;20266;-82
2024/04/09 13:12:04;;;;;;;2.90;1.20;;;;;;;16.05;42.15;98837.34;9159441;21;20267;-82
2024/04/09 13:15:28;;;;;;;0.93;0.93;;;;;;;16.13;41.55;98839.69;9161866;21;20271;-82
2024/04/09 13:18:48;;;;;;;1.30;1.20;;;;;;;15.71;41.01;98857.25;9160142;21;20229;-83
2024/04/09 13:22:11;;;;;;;0.90;0.90;;;;;;;15.80;40.32;98828.66;9159188;21;20254;-81
2024/04/09 13:25:34;;;;;;;1.80;1.70;;;;;;;15.52;40.75;98833.97;9161088;21;20227;-81
2024/04/09 13:28:58;;;;;;;1.40;1.30;;;;;;;15.51;40.73;98832.31;9159738;21;20267;-81
2024/04/09 13:32:21;;;;;;;1.63;1.10;;;;;;;15.77;40.32;98845.41;9156349;21;20213;-81
2024/04/09 13:35:45;;;;;;;2.50;1.30;;;;;;;16.12;40.49;98847.03;9159458;21;20254;-81
2024/04/09 13:39:07;;;;;;;1.47;1.37;;;;;;;16.06;39.93;98828.97;9157413;21;20278;-82
2024/04/09 13:42:30;;;;;;;1.73;1.20;;;;;;;16.02;40.04;98829.66;9158722;21;20217;-82
2024/04/09 13:45:56;;;;;;;1.20;1.10;;;;;;;16.06;39.13;98828.97;9158981;21;20268;-81
2024/04/09 13:49:19;;;;;;;1.53;1.17;;;;;;;15.75;40.60;98829.34;9158821;21;20232;-82
2024/04/09 13:52:43;;;;;;;1.63;0.90;;;;;;;16.11;39.98;98820.88;9160389;21;20256;-81
2024/04/09 13:56:06;;;;;;;1.57;1.30;;;;;;;16.18;39.34;98801.72;9158555;21;20221;-79
2024/04/09 13:59:29;;;;;;;4.10;1.30;;;;;;;16.65;39.07;98814.97;9159656;21;20590;-82
2024/04/09 14:02:55;;;;;;;1.30;1.20;;;;;;;16.92;39.33;98831.53;9160429;21;20221;-83
2024/04/09 14:06:15;;;;;;;1.20;1.10;;;;;;;16.42;40.71;98841.44;9158308;21;20231;-80
2024/04/09 14:09:41;;;;;;;2.03;0.97;;;;;;;16.37;41.17;98846.72;9150366;21;20229;-84
2024/04/09 14:13:04;;;;;;;1.10;1.10;;;;;;;16.97;40.63;98861.56;9159892;21;20241;-81
2024/04/09 14:16:27;;;;;;;4.20;1.10;;;;;;;16.48;41.05;98862.25;9170084;21;20221;-83
2024/04/09 14:19:52;;;;;;;1.33;1.23;;;;;;;16.01;41.99;98882.41;9165250;21;20229;-81
2024/04/09 14:23:15;;;;;;;1.70;1.10;;;;;;;16.40;41.27;98884.41;9158666;21;20262;-82
2024/04/09 14:26:38;;;;;;;2.27;1.27;;;;;;;16.55;40.59;98877.38;9160132;21;20735;-81
2024/04/09 14:30:02;;;;;;;1.10;1.10;;;;;;;16.61;40.14;98890.00;9164348;21;20244;-82
2024/04/09 14:33:25;;;;;;;2.30;1.13;;;;;;;15.86;41.69;98871.19;9163474;21;20669;-83
2024/04/09 14:36:48;;;;;;;2.93;1.10;;;;;;;16.34;41.53;98877.97;9163971;21;20228;-82
2024/04/09 14:40:12;;;;;;;0.97;0.97;;;;;;;16.14;41.94;98906.63;9166208;21;20285;-82
2024/04/09 14:43:37;;;;;;;3.90;1.57;;;;;;;16.33;42.91;98913.59;9165302;21;20225;-83
2024/04/09 14:46:57;;;;;;;1.20;1.10;;;;;;;16.17;42.67;98909.69;9164955;21;20220;-82
2024/04/09 14:50:21;;;;;;;0.90;0.90;;;;;;;15.67;44.22;98919.41;9166259;21;20254;-82
2024/04/09 14:53:48;;;;;;;1.43;1.30;;;;;;;15.71;44.26;98903.44;9093921;21;20226;-82
2024/04/09 14:57:08;;;;;;;1.20;1.10;;;;;;;15.43;43.01;98898.69;9098001;21;20267;-82
2024/04/09 15:00:31;;;;;;;1.30;1.30;;;;;;;16.25;43.79;98919.41;9075772;21;20696;-86
2024/04/09 15:03:54;;;;;;;1.53;1.20;;;;;;;16.06;42.93;98910.56;9075176;21;20222;-86
2024/04/09 15:07:18;;;;;;;2.83;1.67;;;;;;;15.55;43.40;98920.44;9074550;21;20341;-86
2024/04/09 15:10:57;;;;;;;1.27;1.17;;;;;;;15.69;43.76;98906.41;9074461;21;20238;-85
2024/04/09 15:14:20;;;;;;;2.10;1.60;;;;;;;16.51;43.00;98910.75;9075207;21;20673;-87
2024/04/09 15:17:41;;;;;;;1.57;1.47;;;;;;;15.66;42.78;98906.03;9075085;21;20296;-86
2024/04/09 15:21:05;;;;;;;2.27;1.33;;;;;;;15.60;41.40;98920.56;9079293;21;20293;-83
2024/04/09 15:24:28;;;;;;;1.60;1.40;;;;;;;15.89;39.97;98896.03;9076420;21;20226;-86
2024/04/09 15:27:56;;;;;;;5.60;1.50;;;;;;;16.20;38.64;98902.97;9077506;21;20229;-86
2024/04/09 15:31:19;;;;;;;2.33;1.23;;;;;;;16.30;38.71;98900.47;9078056;21;20692;-87
2024/04/09 15:34:39;;;;;;;3.00;1.27;;;;;;;15.93;39.52;98915.41;9077727;21;20256;-86
2024/04/09 15:38:03;;;;;;;1.93;1.27;;;;;;;16.16;38.72;98910.78;9077534;21;20218;-86
2024/04/09 15:41:23;;;;;;;1.87;1.40;;;;;;;16.74;39.31;98914.25;9079551;21;20739;-84
2024/04/09 15:44:49;;;;;;;1.33;1.23;;;;;;;16.32;39.34;98912.78;9076276;21;20217;-81
2024/04/09 15:48:10;;;;;;;3.20;1.40;;;;;;;16.76;38.60;98906.63;9078107;21;20229;-82
2024/04/09 15:51:33;;;;;;;2.43;1.23;;;;;;;16.91;38.31;98920.56;9078974;21;20250;-82
2024/04/09 15:54:53;;;;;;;2.70;1.43;;;;;;;16.40;38.57;98923.31;9079662;21;20225;-83
2024/04/09 15:58:19;;;;;;;3.27;1.33;;;;;;;16.78;38.37;98928.19;9077890;21;20275;-83
2024/04/09 16:01:47;;;;;;;2.07;1.27;;;;;;;16.57;38.37;98926.13;9079011;21;20591;-83
2024/04/09 16:05:10;;;;;;;1.13;0.90;;;;;;;17.02;38.16;98933.31;9078596;21;20276;-83
2024/04/09 16:08:32;;;;;;;1.60;1.40;;;;;;;16.76;38.68;98927.63;9081029;21;20231;-83
2024/04/09 16:11:55;;;;;;;1.33;1.20;;;;;;;17.15;38.25;98940.38;9078917;21;20225;-84
2024/04/09 16:15:16;;;;;;;1.43;1.33;;;;;;;17.07;39.24;98930.69;9077596;21;20233;-83